createdAt,value
2022-12-09T00:00:39.597Z,98.40
2022-12-09T00:03:06.903Z,98.70
2022-12-09T00:05:33.847Z,98.97
2022-12-09T00:08:00.769Z,99.01
2022-12-09T00:10:28.047Z,99.32
2022-12-09T00:12:56.700Z,99.70
2022-12-09T00:15:23.617Z,99.59
2022-12-09T00:17:50.539Z,99.34
2022-12-09T00:20:17.644Z,99.42
2022-12-09T00:22:44.573Z,99.64
2022-12-09T00:25:11.534Z,99.42
2022-12-09T00:27:38.684Z,98.75
2022-12-09T00:30:06.597Z,98.97
2022-12-09T00:32:33.945Z,99.29
2022-12-09T00:35:00.990Z,100.00
2022-12-09T00:37:28.222Z,98.81
2022-12-09T00:39:55.050Z,99.10
2022-12-09T00:42:21.931Z,99.36
2022-12-09T00:44:48.834Z,99.03
2022-12-09T00:47:15.855Z,99.58
2022-12-09T00:49:43.310Z,99.28
2022-12-09T00:52:10.307Z,98.92
2022-12-09T00:54:37.602Z,98.50
2022-12-09T00:57:04.704Z,99.05
2022-12-09T00:59:31.856Z,98.93
2022-12-09T01:01:58.951Z,98.63
2022-12-09T01:04:26.012Z,98.91
2022-12-09T01:06:53.062Z,98.70
2022-12-09T01:09:20.310Z,98.88
2022-12-09T01:11:47.445Z,99.17
2022-12-09T01:14:14.590Z,99.26
2022-12-09T01:16:41.565Z,99.02
2022-12-09T01:19:11.332Z,99.30
2022-12-09T01:21:38.429Z,99.94
2022-12-09T01:24:09.267Z,99.46
2022-12-09T01:26:37.169Z,99.29
2022-12-09T01:29:04.822Z,99.27
2022-12-09T01:31:32.276Z,99.71
2022-12-09T01:33:59.403Z,100.00
2022-12-09T01:36:29.022Z,100.00
2022-12-09T01:38:58.939Z,100.00
2022-12-09T01:41:28.032Z,100.00
2022-12-09T01:44:27.886Z,100.00
2022-12-09T01:46:56.656Z,100.00
2022-12-09T01:49:35.627Z,100.00
2022-12-09T01:52:05.940Z,100.00
2022-12-09T01:54:33.290Z,100.00
2022-12-09T01:57:00.469Z,100.00
2022-12-09T01:59:28.074Z,100.00
2022-12-09T02:02:01.236Z,100.00
2022-12-09T02:04:32.111Z,100.00
2022-12-09T02:07:01.595Z,100.00
2022-12-09T02:09:29.001Z,100.00
2022-12-09T02:12:03.576Z,100.00
2022-12-09T02:14:43.087Z,100.00
2022-12-09T02:17:25.186Z,100.00
2022-12-09T02:20:23.721Z,100.00
2022-12-09T02:23:01.870Z,100.00
2022-12-09T02:25:29.025Z,100.00
2022-12-09T02:28:34.409Z,100.00
2022-12-09T02:31:13.737Z,100.00
2022-12-09T02:34:09.763Z,100.00
2022-12-09T02:37:10.690Z,100.00
2022-12-09T02:39:52.503Z,100.00
2022-12-09T02:42:27.894Z,100.00
2022-12-09T02:44:58.412Z,100.00
2022-12-09T02:47:29.850Z,100.00
2022-12-09T02:50:02.184Z,100.00
2022-12-09T02:52:32.133Z,100.00
2022-12-09T02:55:01.657Z,100.00
2022-12-09T02:57:30.776Z,100.00
2022-12-09T02:59:57.857Z,100.00
2022-12-09T03:02:32.010Z,100.00
2022-12-09T03:04:59.167Z,100.00
2022-12-09T03:07:44.253Z,100.00
2022-12-09T03:10:18.215Z,100.00
2022-12-09T03:27:11.021Z,100.00
2022-12-09T03:29:42.686Z,100.00
2022-12-09T03:32:12.505Z,100.00
2022-12-09T03:34:43.201Z,100.00
2022-12-09T03:37:12.714Z,100.00
2022-12-09T03:39:40.888Z,100.00
2022-12-09T03:42:15.991Z,100.00
2022-12-09T03:44:55.422Z,100.00
2022-12-09T03:47:22.828Z,100.00
2022-12-09T03:49:50.237Z,100.00
2022-12-09T03:52:45.901Z,100.00
2022-12-09T03:55:28.693Z,100.00
2022-12-09T03:57:59.763Z,100.00
2022-12-09T04:00:27.651Z,100.00
2022-12-09T04:02:54.749Z,100.00
2022-12-09T04:05:22.064Z,100.00
2022-12-09T04:07:49.327Z,100.00
2022-12-09T04:10:16.673Z,100.00
2022-12-09T04:12:43.921Z,100.00
2022-12-09T04:15:11.132Z,100.00
2022-12-09T04:17:38.151Z,100.00
2022-12-09T04:20:06.900Z,99.72
2022-12-09T04:22:34.774Z,99.78
2022-12-09T04:25:01.730Z,99.59
2022-12-09T04:27:28.805Z,99.19
2022-12-09T04:29:55.750Z,99.26
2022-12-09T04:32:23.284Z,98.92
2022-12-09T04:34:50.210Z,99.19
2022-12-09T04:37:17.388Z,98.98
2022-12-09T04:39:44.303Z,98.55
2022-12-09T04:42:11.555Z,99.26
2022-12-09T04:44:38.617Z,98.77
2022-12-09T04:47:05.906Z,98.68
2022-12-09T04:49:32.937Z,99.04
2022-12-09T04:52:00.145Z,98.80
2022-12-09T04:54:27.223Z,98.84
2022-12-09T04:56:54.900Z,98.39
2022-12-09T04:59:21.776Z,98.24
2022-12-09T05:01:48.999Z,98.40
2022-12-09T05:04:16.480Z,98.14
2022-12-09T05:06:43.582Z,98.25
2022-12-09T05:09:13.452Z,97.85
2022-12-09T05:11:41.033Z,97.43
2022-12-09T05:14:08.426Z,97.79
2022-12-09T05:16:35.786Z,96.98
2022-12-09T05:19:03.242Z,96.78
2022-12-09T05:21:30.277Z,97.16
2022-12-09T05:23:58.410Z,96.90
2022-12-09T05:26:25.898Z,96.87
2022-12-09T05:28:53.120Z,97.09
2022-12-09T05:31:22.799Z,96.46
2022-12-09T05:33:51.533Z,96.13
2022-12-09T05:36:22.308Z,96.21
2022-12-09T05:38:49.696Z,95.27
2022-12-09T05:41:18.424Z,95.53
2022-12-09T05:43:45.858Z,96.05
2022-12-09T05:46:14.651Z,95.72
2022-12-09T05:48:42.479Z,95.26
2022-12-09T05:51:18.719Z,95.40
2022-12-09T05:53:45.795Z,94.82
2022-12-09T05:56:16.950Z,94.24
2022-12-09T05:58:44.399Z,94.34
2022-12-09T06:01:11.929Z,94.03
2022-12-09T06:03:39.752Z,91.92
2022-12-09T06:06:09.491Z,91.45
2022-12-09T06:08:37.818Z,90.61
2022-12-09T06:11:08.814Z,89.90
2022-12-09T06:13:36.135Z,86.01
2022-12-09T06:16:05.524Z,83.10
2022-12-09T06:18:33.202Z,78.37
2022-12-09T06:21:04.872Z,73.47
2022-12-09T06:23:32.102Z,69.45
2022-12-09T06:25:59.000Z,68.37
2022-12-09T06:28:26.190Z,68.45
2022-12-09T06:30:53.421Z,66.98
2022-12-09T06:33:52.546Z,68.39
2022-12-09T06:36:07.916Z,66.60
2022-12-09T06:38:35.318Z,64.71
2022-12-09T06:41:07.155Z,61.28
2022-12-09T06:43:34.596Z,59.08
2022-12-09T06:46:01.990Z,57.70
2022-12-09T06:48:29.326Z,58.91
2022-12-09T06:50:56.782Z,59.12
2022-12-09T06:53:23.599Z,58.77
2022-12-09T06:55:50.723Z,61.67
2022-12-09T06:58:18.070Z,61.87
2022-12-09T07:00:45.202Z,63.25
2022-12-09T07:03:13.051Z,63.16
2022-12-09T07:05:40.424Z,59.40
2022-12-09T07:08:07.787Z,54.64
2022-12-09T07:10:36.088Z,48.94
2022-12-09T07:13:03.060Z,47.67
2022-12-09T07:15:30.447Z,45.49
2022-12-09T07:17:57.856Z,44.60
2022-12-09T07:20:25.235Z,42.03
2022-12-09T07:22:52.647Z,42.75
2022-12-09T07:25:19.883Z,40.93
2022-12-09T07:27:47.146Z,41.06
2022-12-09T07:30:14.290Z,38.91
2022-12-09T07:32:41.390Z,39.60
2022-12-09T07:35:09.657Z,40.39
2022-12-09T07:37:36.866Z,42.59
2022-12-09T07:40:04.250Z,45.35
2022-12-09T07:42:31.879Z,44.92
2022-12-09T07:45:04.431Z,47.38
2022-12-09T07:47:31.782Z,46.53
2022-12-09T07:50:02.969Z,48.52
2022-12-09T07:52:33.721Z,49.78
2022-12-09T07:55:01.751Z,50.96
2022-12-09T07:57:29.122Z,51.02
2022-12-09T07:59:57.014Z,50.57
2022-12-09T08:02:23.981Z,47.34
2022-12-09T08:04:51.174Z,47.38
2022-12-09T08:07:18.562Z,47.48
2022-12-09T08:09:45.780Z,46.25
2022-12-09T08:12:13.632Z,46.33
2022-12-09T08:14:40.959Z,43.81
2022-12-09T08:17:08.273Z,42.83
2022-12-09T08:19:35.529Z,40.21
2022-12-09T08:22:02.501Z,39.13
2022-12-09T08:24:30.103Z,39.82
2022-12-09T08:26:57.359Z,40.21
2022-12-09T08:29:24.430Z,39.13
2022-12-09T08:31:51.560Z,38.70
2022-12-09T08:34:19.105Z,38.48
2022-12-09T08:36:46.451Z,37.71
2022-12-09T08:39:14.721Z,36.82
2022-12-09T08:41:43.321Z,35.41
2022-12-09T08:44:17.039Z,39.07
2022-12-09T08:46:46.454Z,39.45
2022-12-09T08:49:19.140Z,37.28
2022-12-09T08:51:51.723Z,37.71
2022-12-09T08:54:19.109Z,39.24
2022-12-09T08:56:48.464Z,38.42
2022-12-09T08:59:16.199Z,39.17
2022-12-09T09:01:43.853Z,40.37
2022-12-09T09:04:14.368Z,38.23
2022-12-09T09:06:44.663Z,37.80
2022-12-09T09:09:14.287Z,36.82
2022-12-09T09:11:43.125Z,34.28
2022-12-09T09:14:12.474Z,36.25
2022-12-09T09:16:42.230Z,38.08
2022-12-09T09:19:16.584Z,38.99
2022-12-09T09:21:44.441Z,41.28
2022-12-09T09:24:14.316Z,41.75
2022-12-09T09:26:43.409Z,42.17
2022-12-09T09:29:15.968Z,40.47
2022-12-09T09:31:43.961Z,40.01
2022-12-09T09:34:11.478Z,40.00
2022-12-09T09:36:40.292Z,41.11
2022-12-09T09:39:07.675Z,41.89
2022-12-09T09:41:40.993Z,41.30
2022-12-09T09:44:20.568Z,38.27
2022-12-09T09:46:49.201Z,35.61
2022-12-09T09:49:23.696Z,36.85
2022-12-09T09:51:51.321Z,37.43
2022-12-09T09:54:18.717Z,37.52
2022-12-09T09:56:55.160Z,36.40
2022-12-09T09:59:34.160Z,37.04
2022-12-09T10:02:19.605Z,35.25
2022-12-09T10:05:13.318Z,35.16
2022-12-09T10:07:53.603Z,33.68
2022-12-09T10:10:36.110Z,34.49
2022-12-09T10:13:37.654Z,37.22
2022-12-09T10:16:19.270Z,36.35
2022-12-09T10:18:46.427Z,36.09
2022-12-09T10:21:19.454Z,36.25
2022-12-09T10:23:48.816Z,35.61
2022-12-09T10:26:31.109Z,33.55
2022-12-09T10:29:42.796Z,32.64
2022-12-09T10:32:17.261Z,32.50
2022-12-09T10:34:46.003Z,33.86
2022-12-09T10:37:35.281Z,36.10
2022-12-09T10:40:36.186Z,34.25
2022-12-09T10:43:41.283Z,36.33
2022-12-09T10:46:21.065Z,37.28
2022-12-09T10:48:49.021Z,39.65
2022-12-09T10:51:27.408Z,39.25
2022-12-09T10:53:58.790Z,41.25
2022-12-09T10:56:36.800Z,45.00
2022-12-09T10:59:23.981Z,51.62
2022-12-09T11:02:17.665Z,55.60
2022-12-09T11:04:47.154Z,60.46
2022-12-09T11:07:18.239Z,59.56
2022-12-09T11:09:49.098Z,58.20
2022-12-09T11:12:41.203Z,56.70
2022-12-09T11:15:11.889Z,57.22
2022-12-09T11:17:43.294Z,57.46
2022-12-09T11:20:22.531Z,59.91
2022-12-09T11:23:13.301Z,60.64
2022-12-09T11:25:53.973Z,62.06
2022-12-09T11:28:26.151Z,62.45
2022-12-09T11:31:27.974Z,62.77
2022-12-09T11:33:57.055Z,64.74
2022-12-09T11:36:29.852Z,64.91
2022-12-09T11:39:15.160Z,64.64
2022-12-09T11:42:16.145Z,65.75
2022-12-09T11:45:06.081Z,67.47
2022-12-09T11:48:22.686Z,68.19
2022-12-09T11:50:32.740Z,70.22
2022-12-09T11:53:07.720Z,69.74
2022-12-09T11:55:37.804Z,70.76
2022-12-09T11:58:11.133Z,70.97
2022-12-09T12:00:47.385Z,71.21
2022-12-09T12:03:37.076Z,71.64
2022-12-09T12:06:11.882Z,72.15
2022-12-09T12:08:47.135Z,71.93
2022-12-09T12:11:24.812Z,72.09
2022-12-09T12:14:00.044Z,72.01
2022-12-09T12:16:26.806Z,71.69
2022-12-09T12:19:11.769Z,71.92
2022-12-09T12:22:00.294Z,72.26
2022-12-09T12:24:33.237Z,72.82
2022-12-09T12:27:29.372Z,70.91
2022-12-09T12:29:56.222Z,70.56
2022-12-09T12:32:38.184Z,69.85
2022-12-09T12:35:20.440Z,68.86
2022-12-09T12:38:15.989Z,68.14
2022-12-09T12:41:14.742Z,66.65
2022-12-09T12:44:02.804Z,65.38
2022-12-09T12:46:54.754Z,65.04
2022-12-09T12:49:47.666Z,63.79
2022-12-09T12:52:59.018Z,63.08
2022-12-09T12:55:41.031Z,63.58
2022-12-09T12:58:28.902Z,64.32
2022-12-09T13:01:14.543Z,64.56
2022-12-09T13:03:53.168Z,66.02
2022-12-09T13:06:24.228Z,66.18
2022-12-09T13:09:01.365Z,67.05
2022-12-09T13:11:37.816Z,67.91
2022-12-09T13:14:11.987Z,67.63
2022-12-09T13:16:40.221Z,66.96
2022-12-09T13:19:17.072Z,67.17
2022-12-09T13:21:45.564Z,66.77
2022-12-09T13:24:13.705Z,66.74
2022-12-09T13:26:52.620Z,67.00
2022-12-09T13:29:38.153Z,67.15
2022-12-09T13:32:17.441Z,67.41
2022-12-09T13:34:54.522Z,67.31
2022-12-09T13:37:30.405Z,67.42
2022-12-09T13:39:58.804Z,67.57
2022-12-09T13:42:46.960Z,67.93
2022-12-09T13:45:28.722Z,68.96
2022-12-09T13:47:58.543Z,69.29
2022-12-09T13:50:31.226Z,69.11
2022-12-09T13:53:02.542Z,69.24
2022-12-09T13:55:55.695Z,69.27
2022-12-09T13:58:53.508Z,70.77
2022-12-09T14:01:25.854Z,70.58
2022-12-09T14:04:15.615Z,70.51
2022-12-09T14:06:45.615Z,70.55
2022-12-09T14:09:24.568Z,74.09
2022-12-09T14:11:53.351Z,75.98
2022-12-09T14:14:23.445Z,76.51
2022-12-09T14:16:55.353Z,78.32
2022-12-09T14:19:25.315Z,79.00
2022-12-09T14:22:17.138Z,78.98
2022-12-09T14:24:44.679Z,79.75
2022-12-09T14:27:14.694Z,81.51
2022-12-09T14:29:46.071Z,82.68
2022-12-09T14:32:29.219Z,82.87
2022-12-09T14:35:11.286Z,85.17
2022-12-09T14:37:56.450Z,86.10
2022-12-09T14:40:41.893Z,87.27
2022-12-09T14:43:50.200Z,88.58
2022-12-09T14:46:30.117Z,90.23
2022-12-09T14:49:03.304Z,90.18
2022-12-09T14:51:40.338Z,91.28
2022-12-09T14:54:14.903Z,91.82
2022-12-09T14:56:50.558Z,92.27
2022-12-09T14:59:20.835Z,93.48
2022-12-09T15:01:56.382Z,92.81
2022-12-09T15:04:33.999Z,92.81
2022-12-09T15:07:08.030Z,93.67
2022-12-09T15:09:35.081Z,96.15
2022-12-09T15:12:07.173Z,95.91
2022-12-09T15:29:06.612Z,100.00
2022-12-09T15:31:34.547Z,100.00
2022-12-09T15:34:23.215Z,100.00
2022-12-09T15:37:00.384Z,100.00
2022-12-09T15:39:45.589Z,100.00
2022-12-09T15:42:18.159Z,100.00
2022-12-09T15:45:20.393Z,100.00
2022-12-09T15:47:58.902Z,100.00
2022-12-09T15:50:41.966Z,100.00
2022-12-09T15:53:23.261Z,100.00
2022-12-09T15:55:55.521Z,100.00
2022-12-09T15:58:27.266Z,100.00
2022-12-09T16:00:55.108Z,100.00
2022-12-09T16:03:27.269Z,100.00
2022-12-09T16:06:00.320Z,100.00
2022-12-09T16:08:37.448Z,100.00
2022-12-09T16:11:05.663Z,100.00
2022-12-09T16:13:32.659Z,100.00
2022-12-09T16:16:02.256Z,100.00
2022-12-09T16:18:49.971Z,100.00
2022-12-09T16:21:36.883Z,100.00
2022-12-09T16:24:12.119Z,100.00
2022-12-09T16:26:44.489Z,100.00
2022-12-09T16:29:27.714Z,100.00
2022-12-09T16:32:18.087Z,100.00
2022-12-09T16:34:51.653Z,100.00
2022-12-09T16:37:39.493Z,100.00
2022-12-09T16:40:21.778Z,100.00
2022-12-09T16:42:50.304Z,100.00
2022-12-09T16:45:32.210Z,100.00
2022-12-09T16:47:59.988Z,100.00
2022-12-09T16:50:41.658Z,100.00
2022-12-09T16:53:39.367Z,100.00
2022-12-09T16:56:06.499Z,100.00
2022-12-09T16:58:34.623Z,100.00
2022-12-09T17:01:03.572Z,100.00
2022-12-09T17:03:38.435Z,100.00
2022-12-09T17:06:06.504Z,100.00
2022-12-09T17:08:33.826Z,100.00
2022-12-09T17:11:00.952Z,100.00
2022-12-09T17:13:28.174Z,100.00
2022-12-09T17:15:58.584Z,100.00
2022-12-09T17:18:26.321Z,100.00
2022-12-09T17:21:04.405Z,100.00
2022-12-09T17:23:37.654Z,100.00
2022-12-09T17:26:09.809Z,100.00
2022-12-09T17:28:37.562Z,100.00
2022-12-09T17:31:09.525Z,100.00
2022-12-09T17:33:37.515Z,100.00
2022-12-09T17:36:05.060Z,100.00
2022-12-09T17:38:32.120Z,100.00
2022-12-09T17:41:07.802Z,100.00
2022-12-09T17:43:35.572Z,100.00
2022-12-09T17:46:04.329Z,100.00
2022-12-09T17:48:33.304Z,100.00
2022-12-09T17:51:05.919Z,100.00
2022-12-09T17:53:32.916Z,100.00
2022-12-09T17:55:59.867Z,100.00
2022-12-09T17:58:27.155Z,100.00
2022-12-09T18:00:54.039Z,100.00
2022-12-09T18:03:39.419Z,100.00
2022-12-09T18:06:09.044Z,100.00
2022-12-09T18:08:36.855Z,100.00
2022-12-09T18:11:06.658Z,100.00
2022-12-09T18:13:34.537Z,100.00
2022-12-09T18:16:01.675Z,100.00
2022-12-09T18:18:29.009Z,100.00
2022-12-09T18:21:00.674Z,100.00
2022-12-09T18:23:27.995Z,100.00
2022-12-09T18:25:55.188Z,100.00
2022-12-09T18:28:22.158Z,100.00
2022-12-09T18:30:49.237Z,100.00
2022-12-09T18:33:16.165Z,100.00
2022-12-09T18:35:43.088Z,100.00
2022-12-09T18:38:12.854Z,100.00
2022-12-09T18:41:01.139Z,100.00
2022-12-09T18:43:39.527Z,100.00
2022-12-09T18:46:10.908Z,100.00
2022-12-09T18:48:38.579Z,100.00
2022-12-09T18:51:08.834Z,100.00
2022-12-09T18:53:35.795Z,100.00
2022-12-09T18:56:06.151Z,100.00
2022-12-09T18:59:04.333Z,100.00
2022-12-09T19:01:21.745Z,100.00
2022-12-09T19:03:48.563Z,100.00
2022-12-09T19:06:25.969Z,100.00
2022-12-09T19:08:56.550Z,100.00
2022-12-09T19:11:29.454Z,100.00
2022-12-09T19:13:57.215Z,100.00
2022-12-09T19:16:25.380Z,100.00
2022-12-09T19:18:53.703Z,100.00
2022-12-09T19:21:22.956Z,100.00
2022-12-09T19:23:50.892Z,100.00
2022-12-09T19:26:21.118Z,100.00
2022-12-09T19:28:51.063Z,100.00
2022-12-09T19:31:24.601Z,100.00
2022-12-09T19:33:56.219Z,100.00
2022-12-09T19:36:24.906Z,100.00
2022-12-09T19:38:52.569Z,100.00
2022-12-09T19:41:19.945Z,100.00
2022-12-09T19:43:47.395Z,100.00
2022-12-09T19:46:15.453Z,100.00
2022-12-09T19:48:46.763Z,100.00
2022-12-09T19:51:17.497Z,100.00
2022-12-09T19:53:45.235Z,100.00
2022-12-09T19:56:15.749Z,100.00
2022-12-09T19:58:43.993Z,100.00
2022-12-09T20:01:34.322Z,100.00
2022-12-09T20:04:19.130Z,100.00
2022-12-09T20:06:51.312Z,100.00
2022-12-09T20:09:24.276Z,100.00
2022-12-09T20:11:53.007Z,100.00
2022-12-09T20:14:20.190Z,100.00
2022-12-09T20:16:47.161Z,100.00
2022-12-09T20:19:14.115Z,100.00
2022-12-09T20:21:41.116Z,100.00
2022-12-09T20:24:08.854Z,100.00
2022-12-09T20:26:37.875Z,100.00
2022-12-09T20:29:09.752Z,100.00
2022-12-09T20:31:38.288Z,100.00
2022-12-09T20:34:12.107Z,100.00
2022-12-09T20:36:41.352Z,100.00
2022-12-09T20:39:13.190Z,100.00
2022-12-09T20:41:41.865Z,100.00
2022-12-09T20:44:11.082Z,100.00
2022-12-09T20:46:39.200Z,100.00
2022-12-09T20:49:06.060Z,100.00
2022-12-09T20:51:38.511Z,100.00
2022-12-09T20:54:07.462Z,100.00
2022-12-09T20:56:34.499Z,100.00
2022-12-09T20:59:01.891Z,100.00
2022-12-09T21:01:31.584Z,100.00
2022-12-09T21:03:59.940Z,100.00
2022-12-09T21:06:30.315Z,100.00
2022-12-09T21:09:00.632Z,100.00
2022-12-09T21:11:27.758Z,100.00
2022-12-09T21:13:58.702Z,100.00
2022-12-09T21:16:28.327Z,100.00
2022-12-09T21:19:00.116Z,100.00
2022-12-09T21:21:30.196Z,100.00
2022-12-09T21:23:57.348Z,100.00
2022-12-09T21:26:26.223Z,100.00
2022-12-09T21:28:53.711Z,100.00
2022-12-09T21:31:23.089Z,100.00
2022-12-09T21:33:51.850Z,100.00
2022-12-09T21:36:22.140Z,100.00
2022-12-09T21:38:49.156Z,100.00
2022-12-09T21:41:19.872Z,100.00
2022-12-09T21:43:47.121Z,100.00
2022-12-09T21:46:25.863Z,100.00
2022-12-09T21:48:59.992Z,100.00
2022-12-09T21:51:30.310Z,100.00
2022-12-09T21:53:57.558Z,100.00
2022-12-09T21:56:26.415Z,100.00
2022-12-09T21:58:55.932Z,100.00
2022-12-09T22:01:26.949Z,100.00
2022-12-09T22:03:55.175Z,100.00
2022-12-09T22:06:22.961Z,100.00
2022-12-09T22:08:50.216Z,100.00
2022-12-09T22:11:27.567Z,100.00
2022-12-09T22:13:58.127Z,100.00
2022-12-09T22:16:28.463Z,100.00
2022-12-09T22:18:57.231Z,100.00
2022-12-09T22:21:27.010Z,100.00
2022-12-09T22:23:56.734Z,100.00
2022-12-09T22:26:25.897Z,100.00
2022-12-09T22:28:53.562Z,100.00
2022-12-09T22:31:26.337Z,100.00
2022-12-09T22:33:55.445Z,100.00
2022-12-09T22:36:23.062Z,100.00
2022-12-09T22:38:50.424Z,100.00
2022-12-09T22:41:21.151Z,100.00
2022-12-09T22:43:49.997Z,100.00
2022-12-09T22:46:19.379Z,100.00
2022-12-09T22:48:47.291Z,100.00
2022-12-09T22:51:20.650Z,100.00
2022-12-09T22:53:51.999Z,100.00
2022-12-09T22:56:19.799Z,100.00
2022-12-09T22:58:47.038Z,100.00
2022-12-09T23:01:17.116Z,100.00
2022-12-09T23:03:44.552Z,100.00
2022-12-09T23:06:11.766Z,100.00
2022-12-09T23:08:40.596Z,100.00
2022-12-09T23:11:22.226Z,100.00
2022-12-09T23:13:49.512Z,100.00
2022-12-09T23:16:21.215Z,100.00
2022-12-09T23:18:48.947Z,100.00
2022-12-09T23:21:17.425Z,100.00
2022-12-09T23:23:45.283Z,100.00
2022-12-09T23:26:19.404Z,100.00
2022-12-09T23:28:48.827Z,100.00
2022-12-09T23:31:18.177Z,100.00
2022-12-09T23:33:47.103Z,100.00
2022-12-09T23:36:17.323Z,100.00
2022-12-09T23:38:44.769Z,100.00
2022-12-09T23:41:12.803Z,100.00
2022-12-09T23:43:40.212Z,100.00
2022-12-09T23:46:15.118Z,100.00
2022-12-09T23:48:44.126Z,100.00
2022-12-09T23:51:11.699Z,99.80
2022-12-09T23:53:39.749Z,99.19
2022-12-09T23:56:07.562Z,99.08
2022-12-09T23:58:34.409Z,98.90
